sensor_id;sensor_type;location;lat;lon;timestamp;pressure;altitude;pressure_sealevel;temperature;humidity
50292;BME280;36190;54.980;73.388;2023-06-26T00:01:44;99651.41;;;13.09;74.57
50292;BME280;36190;54.980;73.388;2023-06-26T00:04:11;99654.50;;;13.06;74.52
50292;BME280;36190;54.980;73.388;2023-06-26T00:06:40;99646.47;;;13.06;74.53
50292;BME280;36190;54.980;73.388;2023-06-26T00:09:08;99647.50;;;13.05;74.68
50292;BME280;36190;54.980;73.388;2023-06-26T00:11:36;99650.38;;;13.10;74.61
50292;BME280;36190;54.980;73.388;2023-06-26T00:14:04;99651.63;;;13.14;74.76
50292;BME280;36190;54.980;73.388;2023-06-26T00:16:32;99645.25;;;13.15;74.51
50292;BME280;36190;54.980;73.388;2023-06-26T00:18:59;99645.00;;;13.10;74.58
50292;BME280;36190;54.980;73.388;2023-06-26T00:21:27;99646.66;;;13.11;74.64
50292;BME280;36190;54.980;73.388;2023-06-26T00:23:54;99652.84;;;13.12;74.53
50292;BME280;36190;54.980;73.388;2023-06-26T00:26:22;99643.16;;;13.17;74.60
50292;BME280;36190;54.980;73.388;2023-06-26T00:28:50;99648.53;;;13.24;74.44
50292;BME280;36190;54.980;73.388;2023-06-26T00:31:19;99643.19;;;13.31;74.58
50292;BME280;36190;54.980;73.388;2023-06-26T00:33:46;99647.94;;;13.42;74.32
50292;BME280;36190;54.980;73.388;2023-06-26T00:36:14;99653.75;;;13.59;74.03
50292;BME280;36190;54.980;73.388;2023-06-26T00:38:41;99647.78;;;13.78;73.49
50292;BME280;36190;54.980;73.388;2023-06-26T00:41:09;99646.28;;;14.02;73.07
50292;BME280;36190;54.980;73.388;2023-06-26T00:43:38;99651.56;;;14.29;72.41
50292;BME280;36190;54.980;73.388;2023-06-26T00:46:09;99658.13;;;14.53;71.94
50292;BME280;36190;54.980;73.388;2023-06-26T00:48:39;99658.22;;;14.72;71.13
50292;BME280;36190;54.980;73.388;2023-06-26T00:51:08;99649.16;;;14.80;70.78
50292;BME280;36190;54.980;73.388;2023-06-26T00:53:36;99656.72;;;14.90;70.64
50292;BME280;36190;54.980;73.388;2023-06-26T00:56:05;99662.47;;;15.00;70.25
50292;BME280;36190;54.980;73.388;2023-06-26T00:58:32;99651.88;;;15.05;70.03
50292;BME280;36190;54.980;73.388;2023-06-26T01:01:00;99652.88;;;15.11;69.81
50292;BME280;36190;54.980;73.388;2023-06-26T01:03:29;99646.66;;;15.17;69.62
50292;BME280;36190;54.980;73.388;2023-06-26T01:05:59;99629.72;;;15.17;69.60
50292;BME280;36190;54.980;73.388;2023-06-26T01:08:27;99648.16;;;15.38;69.35
50292;BME280;36190;54.980;73.388;2023-06-26T01:10:55;99647.28;;;15.45;68.96
50292;BME280;36190;54.980;73.388;2023-06-26T01:13:23;99650.75;;;15.52;68.74
50292;BME280;36190;54.980;73.388;2023-06-26T01:15:51;99648.88;;;15.52;68.69
50292;BME280;36190;54.980;73.388;2023-06-26T01:18:19;99652.97;;;15.55;68.62
50292;BME280;36190;54.980;73.388;2023-06-26T01:20:46;99644.72;;;15.57;68.41
50292;BME280;36190;54.980;73.388;2023-06-26T01:23:20;99631.72;;;15.53;68.25
50292;BME280;36190;54.980;73.388;2023-06-26T01:28:32;99627.16;;;15.54;68.03
50292;BME280;36190;54.980;73.388;2023-06-26T01:31:02;99622.44;;;15.49;67.99
50292;BME280;36190;54.980;73.388;2023-06-26T01:33:30;99631.34;;;15.50;68.13
50292;BME280;36190;54.980;73.388;2023-06-26T01:35:58;99642.50;;;15.47;68.18
50292;BME280;36190;54.980;73.388;2023-06-26T01:38:25;99629.66;;;15.49;68.02
50292;BME280;36190;54.980;73.388;2023-06-26T01:40:53;99634.16;;;15.55;68.15
50292;BME280;36190;54.980;73.388;2023-06-26T01:43:24;99631.44;;;15.62;67.99
50292;BME280;36190;54.980;73.388;2023-06-26T01:45:59;99629.72;;;15.67;67.84
50292;BME280;36190;54.980;73.388;2023-06-26T01:48:32;99644.09;;;15.80;67.94
50292;BME280;36190;54.980;73.388;2023-06-26T01:51:01;99634.28;;;15.92;67.49
50292;BME280;36190;54.980;73.388;2023-06-26T01:53:34;99636.81;;;16.06;67.53
50292;BME280;36190;54.980;73.388;2023-06-26T01:56:07;99639.84;;;16.16;67.28
50292;BME280;36190;54.980;73.388;2023-06-26T01:58:37;99639.75;;;16.23;67.14
50292;BME280;36190;54.980;73.388;2023-06-26T02:01:09;99642.34;;;16.30;67.20
50292;BME280;36190;54.980;73.388;2023-06-26T02:03:36;99641.84;;;16.40;67.03
50292;BME280;36190;54.980;73.388;2023-06-26T02:06:04;99634.88;;;16.50;66.89
50292;BME280;36190;54.980;73.388;2023-06-26T02:08:32;99630.81;;;16.60;66.55
50292;BME280;36190;54.980;73.388;2023-06-26T02:10:59;99632.63;;;16.66;66.26
50292;BME280;36190;54.980;73.388;2023-06-26T02:13:27;99634.47;;;16.66;66.14
50292;BME280;36190;54.980;73.388;2023-06-26T02:15:54;99630.81;;;16.60;66.40
50292;BME280;36190;54.980;73.388;2023-06-26T02:18:24;99625.91;;;16.57;66.60
50292;BME280;36190;54.980;73.388;2023-06-26T02:20:52;99627.97;;;16.55;66.70
50292;BME280;36190;54.980;73.388;2023-06-26T02:23:19;99625.75;;;16.52;66.88
50292;BME280;36190;54.980;73.388;2023-06-26T02:25:46;99623.06;;;16.52;67.02
50292;BME280;36190;54.980;73.388;2023-06-26T02:28:14;99619.31;;;16.53;66.83
50292;BME280;36190;54.980;73.388;2023-06-26T02:30:41;99621.41;;;16.50;66.93
50292;BME280;36190;54.980;73.388;2023-06-26T02:33:09;99616.63;;;16.53;66.89
50292;BME280;36190;54.980;73.388;2023-06-26T02:35:38;99616.03;;;16.50;67.09
50292;BME280;36190;54.980;73.388;2023-06-26T02:38:05;99604.06;;;16.46;67.15
50292;BME280;36190;54.980;73.388;2023-06-26T02:40:33;99612.81;;;16.42;67.22
50292;BME280;36190;54.980;73.388;2023-06-26T02:43:00;99607.81;;;16.45;67.23
50292;BME280;36190;54.980;73.388;2023-06-26T02:45:27;99597.09;;;16.57;67.18
50292;BME280;36190;54.980;73.388;2023-06-26T02:47:55;99603.38;;;16.70;66.79
50292;BME280;36190;54.980;73.388;2023-06-26T02:50:22;99597.28;;;16.74;66.68
50292;BME280;36190;54.980;73.388;2023-06-26T02:52:51;99596.81;;;16.77;66.56
50292;BME280;36190;54.980;73.388;2023-06-26T02:55:19;99589.69;;;16.83;66.27
50292;BME280;36190;54.980;73.388;2023-06-26T02:57:47;99583.88;;;16.98;66.04
50292;BME280;36190;54.980;73.388;2023-06-26T03:00:15;99591.91;;;17.17;65.57
50292;BME280;36190;54.980;73.388;2023-06-26T03:02:43;99588.19;;;17.42;65.01
50292;BME280;36190;54.980;73.388;2023-06-26T03:05:10;99579.63;;;17.69;64.34
50292;BME280;36190;54.980;73.388;2023-06-26T03:07:39;99579.16;;;17.96;63.79
50292;BME280;36190;54.980;73.388;2023-06-26T03:10:08;99578.19;;;18.14;63.25
50292;BME280;36190;54.980;73.388;2023-06-26T03:12:36;99581.53;;;18.33;62.82
50292;BME280;36190;54.980;73.388;2023-06-26T03:15:04;99574.91;;;18.53;62.51
50292;BME280;36190;54.980;73.388;2023-06-26T03:17:31;99580.44;;;18.75;62.04
50292;BME280;36190;54.980;73.388;2023-06-26T03:19:59;99582.38;;;18.92;61.42
50292;BME280;36190;54.980;73.388;2023-06-26T03:22:26;99585.72;;;18.99;61.16
50292;BME280;36190;54.980;73.388;2023-06-26T03:24:54;99584.06;;;19.10;60.81
50292;BME280;36190;54.980;73.388;2023-06-26T03:27:23;99579.38;;;19.22;60.51
50292;BME280;36190;54.980;73.388;2023-06-26T03:29:50;99569.97;;;19.42;60.05
50292;BME280;36190;54.980;73.388;2023-06-26T03:32:17;99568.59;;;19.62;59.39
50292;BME280;36190;54.980;73.388;2023-06-26T03:34:45;99556.94;;;19.78;58.66
50292;BME280;36190;54.980;73.388;2023-06-26T03:37:12;99558.22;;;19.93;58.24
50292;BME280;36190;54.980;73.388;2023-06-26T03:39:40;99559.50;;;20.08;57.66
50292;BME280;36190;54.980;73.388;2023-06-26T03:42:08;99562.09;;;20.19;56.82
50292;BME280;36190;54.980;73.388;2023-06-26T03:44:36;99552.69;;;20.27;56.21
50292;BME280;36190;54.980;73.388;2023-06-26T03:47:04;99552.31;;;20.41;55.58
50292;BME280;36190;54.980;73.388;2023-06-26T03:49:32;99561.09;;;20.53;54.82
50292;BME280;36190;54.980;73.388;2023-06-26T03:52:00;99557.97;;;20.67;54.13
50292;BME280;36190;54.980;73.388;2023-06-26T03:54:27;99552.22;;;20.85;53.50
50292;BME280;36190;54.980;73.388;2023-06-26T03:56:54;99549.63;;;21.01;52.96
50292;BME280;36190;54.980;73.388;2023-06-26T03:59:22;99544.59;;;21.15;52.53
50292;BME280;36190;54.980;73.388;2023-06-26T04:01:51;99547.72;;;21.34;51.99
50292;BME280;36190;54.980;73.388;2023-06-26T04:04:19;99547.78;;;21.44;51.06
50292;BME280;36190;54.980;73.388;2023-06-26T04:06:46;99540.75;;;21.54;50.42
50292;BME280;36190;54.980;73.388;2023-06-26T04:09:14;99539.22;;;21.63;49.93
50292;BME280;36190;54.980;73.388;2023-06-26T04:11:41;99538.69;;;21.66;49.32
50292;BME280;36190;54.980;73.388;2023-06-26T04:14:08;99541.97;;;21.68;49.11
50292;BME280;36190;54.980;73.388;2023-06-26T04:16:36;99532.22;;;21.73;48.80
50292;BME280;36190;54.980;73.388;2023-06-26T04:19:05;99526.31;;;21.81;47.99
50292;BME280;36190;54.980;73.388;2023-06-26T04:21:33;99524.72;;;21.90;47.18
50292;BME280;36190;54.980;73.388;2023-06-26T04:24:00;99515.50;;;22.02;46.20
50292;BME280;36190;54.980;73.388;2023-06-26T04:26:28;99517.16;;;22.08;45.90
50292;BME280;36190;54.980;73.388;2023-06-26T04:28:55;99523.16;;;22.15;45.91
50292;BME280;36190;54.980;73.388;2023-06-26T04:31:23;99511.81;;;22.29;45.79
50292;BME280;36190;54.980;73.388;2023-06-26T04:33:51;99517.03;;;22.56;45.24
50292;BME280;36190;54.980;73.388;2023-06-26T04:36:21;99523.84;;;22.85;44.63
50292;BME280;36190;54.980;73.388;2023-06-26T04:38:54;99509.72;;;23.03;44.80
50292;BME280;36190;54.980;73.388;2023-06-26T04:41:21;99508.63;;;23.10;44.10
50292;BME280;36190;54.980;73.388;2023-06-26T04:43:49;99507.25;;;23.12;43.78
50292;BME280;36190;54.980;73.388;2023-06-26T04:46:16;99509.13;;;23.22;43.26
50292;BME280;36190;54.980;73.388;2023-06-26T04:48:44;99498.25;;;23.38;42.72
50292;BME280;36190;54.980;73.388;2023-06-26T04:51:11;99504.19;;;23.50;42.56
50292;BME280;36190;54.980;73.388;2023-06-26T04:53:40;99489.75;;;23.60;42.35
50292;BME280;36190;54.980;73.388;2023-06-26T04:56:08;99496.56;;;23.62;41.86
50292;BME280;36190;54.980;73.388;2023-06-26T04:58:37;99484.81;;;23.67;41.78
50292;BME280;36190;54.980;73.388;2023-06-26T05:01:04;99481.25;;;23.77;41.76
50292;BME280;36190;54.980;73.388;2023-06-26T05:03:32;99482.28;;;23.92;41.29
50292;BME280;36190;54.980;73.388;2023-06-26T05:06:01;99484.97;;;23.97;41.31
50292;BME280;36190;54.980;73.388;2023-06-26T05:08:28;99481.13;;;24.03;41.29
50292;BME280;36190;54.980;73.388;2023-06-26T05:10:57;99477.25;;;24.14;41.23
50292;BME280;36190;54.980;73.388;2023-06-26T05:13:25;99469.56;;;24.32;40.88
50292;BME280;36190;54.980;73.388;2023-06-26T05:15:52;99468.72;;;24.31;40.89
50292;BME280;36190;54.980;73.388;2023-06-26T05:18:20;99473.06;;;24.33;40.85
50292;BME280;36190;54.980;73.388;2023-06-26T05:20:48;99471.00;;;24.54;40.72
50292;BME280;36190;54.980;73.388;2023-06-26T05:23:16;99470.28;;;24.83;40.43
50292;BME280;36190;54.980;73.388;2023-06-26T05:25:44;99469.75;;;25.10;39.49
50292;BME280;36190;54.980;73.388;2023-06-26T05:28:14;99466.44;;;25.38;38.91
50292;BME280;36190;54.980;73.388;2023-06-26T05:30:42;99467.91;;;25.54;39.00
50292;BME280;36190;54.980;73.388;2023-06-26T05:33:11;99467.13;;;25.54;38.83
50292;BME280;36190;54.980;73.388;2023-06-26T05:35:39;99466.84;;;25.50;38.21
50292;BME280;36190;54.980;73.388;2023-06-26T05:38:08;99449.41;;;25.46;38.35
50292;BME280;36190;54.980;73.388;2023-06-26T05:40:36;99464.63;;;25.58;38.08
50292;BME280;36190;54.980;73.388;2023-06-26T05:43:04;99451.88;;;25.72;37.05
50292;BME280;36190;54.980;73.388;2023-06-26T05:45:33;99452.91;;;25.76;36.29
50292;BME280;36190;54.980;73.388;2023-06-26T05:48:00;99450.16;;;25.76;35.92
50292;BME280;36190;54.980;73.388;2023-06-26T05:50:28;99446.88;;;25.79;35.41
50292;BME280;36190;54.980;73.388;2023-06-26T05:52:56;99452.53;;;25.83;35.77
50292;BME280;36190;54.980;73.388;2023-06-26T05:55:25;99452.41;;;25.93;35.55
50292;BME280;36190;54.980;73.388;2023-06-26T05:57:52;99449.25;;;26.05;35.38
50292;BME280;36190;54.980;73.388;2023-06-26T06:00:21;99456.09;;;26.03;35.21
50292;BME280;36190;54.980;73.388;2023-06-26T06:02:50;99452.03;;;26.00;34.73
50292;BME280;36190;54.980;73.388;2023-06-26T06:05:20;99452.88;;;26.01;34.83
50292;BME280;36190;54.980;73.388;2023-06-26T06:07:47;99445.41;;;26.06;34.85
50292;BME280;36190;54.980;73.388;2023-06-26T06:10:15;99438.53;;;26.09;34.97
50292;BME280;36190;54.980;73.388;2023-06-26T06:12:42;99434.31;;;26.17;34.99
50292;BME280;36190;54.980;73.388;2023-06-26T06:15:10;99434.16;;;26.27;34.75
50292;BME280;36190;54.980;73.388;2023-06-26T06:17:37;99440.75;;;26.26;34.39
50292;BME280;36190;54.980;73.388;2023-06-26T06:20:07;99439.63;;;26.27;34.38
50292;BME280;36190;54.980;73.388;2023-06-26T06:22:34;99433.81;;;26.34;34.60
50292;BME280;36190;54.980;73.388;2023-06-26T06:25:02;99440.94;;;26.49;34.32
50292;BME280;36190;54.980;73.388;2023-06-26T06:27:29;99438.47;;;26.67;33.88
50292;BME280;36190;54.980;73.388;2023-06-26T06:29:57;99436.44;;;26.72;34.08
50292;BME280;36190;54.980;73.388;2023-06-26T06:32:24;99432.44;;;26.84;34.22
50292;BME280;36190;54.980;73.388;2023-06-26T06:34:52;99426.50;;;26.96;34.15
50292;BME280;36190;54.980;73.388;2023-06-26T06:37:21;99405.72;;;26.95;34.21
50292;BME280;36190;54.980;73.388;2023-06-26T06:39:48;99421.00;;;26.82;34.03
50292;BME280;36190;54.980;73.388;2023-06-26T06:42:16;99420.25;;;26.76;34.25
50292;BME280;36190;54.980;73.388;2023-06-26T06:44:43;99419.25;;;26.72;34.21
50292;BME280;36190;54.980;73.388;2023-06-26T06:47:11;99417.09;;;26.69;33.92
50292;BME280;36190;54.980;73.388;2023-06-26T06:49:38;99415.47;;;26.68;33.79
50292;BME280;36190;54.980;73.388;2023-06-26T06:52:06;99415.38;;;26.59;33.80
50292;BME280;36190;54.980;73.388;2023-06-26T06:54:51;99419.25;;;26.39;33.23
50292;BME280;36190;54.980;73.388;2023-06-26T06:57:18;99410.53;;;25.98;33.56
50292;BME280;36190;54.980;73.388;2023-06-26T06:59:46;99410.44;;;25.65;33.77
50292;BME280;36190;54.980;73.388;2023-06-26T07:02:14;99409.66;;;25.40;33.73
50292;BME280;36190;54.980;73.388;2023-06-26T07:04:42;99410.75;;;25.15;34.18
50292;BME280;36190;54.980;73.388;2023-06-26T07:07:09;99418.97;;;24.85;35.63
50292;BME280;36190;54.980;73.388;2023-06-26T07:09:39;99427.66;;;24.52;36.83
50292;BME280;36190;54.980;73.388;2023-06-26T07:12:07;99424.94;;;24.17;38.05
50292;BME280;36190;54.980;73.388;2023-06-26T07:14:34;99425.13;;;23.81;38.76
50292;BME280;36190;54.980;73.388;2023-06-26T07:17:02;99447.03;;;23.50;38.44
50292;BME280;36190;54.980;73.388;2023-06-26T07:19:29;99424.25;;;23.20;37.70
50292;BME280;36190;54.980;73.388;2023-06-26T07:21:57;99413.97;;;22.96;38.75
50292;BME280;36190;54.980;73.388;2023-06-26T07:24:25;99395.00;;;22.65;40.37
50292;BME280;36190;54.980;73.388;2023-06-26T07:26:54;99391.16;;;22.45;41.65
50292;BME280;36190;54.980;73.388;2023-06-26T07:29:21;99377.59;;;22.50;41.81
50292;BME280;36190;54.980;73.388;2023-06-26T07:31:49;99378.69;;;22.70;41.24
50292;BME280;36190;54.980;73.388;2023-06-26T07:34:16;99369.38;;;22.97;41.20
50292;BME280;36190;54.980;73.388;2023-06-26T07:36:44;99374.72;;;23.28;41.21
50292;BME280;36190;54.980;73.388;2023-06-26T07:39:11;99362.63;;;23.60;40.97
50292;BME280;36190;54.980;73.388;2023-06-26T07:41:39;99364.59;;;23.95;40.47
50292;BME280;36190;54.980;73.388;2023-06-26T07:44:07;99364.94;;;24.23;39.76
50292;BME280;36190;54.980;73.388;2023-06-26T07:46:35;99375.09;;;24.47;39.21
50292;BME280;36190;54.980;73.388;2023-06-26T07:49:02;99367.25;;;24.69;39.80
50292;BME280;36190;54.980;73.388;2023-06-26T07:51:30;99356.19;;;24.90;41.73
50292;BME280;36190;54.980;73.388;2023-06-26T07:53:58;99357.44;;;24.98;42.10
50292;BME280;36190;54.980;73.388;2023-06-26T07:56:25;99371.28;;;25.07;42.01
50292;BME280;36190;54.980;73.388;2023-06-26T07:58:53;99380.09;;;24.98;42.47
50292;BME280;36190;54.980;73.388;2023-06-26T08:01:22;99378.94;;;24.45;42.90
50292;BME280;36190;54.980;73.388;2023-06-26T08:03:49;99409.97;;;23.65;44.19
50292;BME280;36190;54.980;73.388;2023-06-26T08:06:16;99428.38;;;22.97;45.21
50292;BME280;36190;54.980;73.388;2023-06-26T08:08:44;99426.47;;;22.35;46.17
50292;BME280;36190;54.980;73.388;2023-06-26T08:11:12;99437.00;;;21.84;47.87
50292;BME280;36190;54.980;73.388;2023-06-26T08:13:39;99446.53;;;21.39;49.86
50292;BME280;36190;54.980;73.388;2023-06-26T08:16:06;99461.47;;;20.93;51.39
50292;BME280;36190;54.980;73.388;2023-06-26T08:18:35;99467.41;;;20.63;53.08
50292;BME280;36190;54.980;73.388;2023-06-26T08:21:03;99480.25;;;20.45;54.18
50292;BME280;36190;54.980;73.388;2023-06-26T08:23:30;99470.09;;;20.30;54.98
50292;BME280;36190;54.980;73.388;2023-06-26T08:25:58;99457.88;;;20.27;55.52
50292;BME280;36190;54.980;73.388;2023-06-26T08:28:25;99455.84;;;20.40;55.82
50292;BME280;36190;54.980;73.388;2023-06-26T08:30:53;99454.94;;;20.61;55.42
50292;BME280;36190;54.980;73.388;2023-06-26T08:33:20;99447.56;;;20.84;55.77
50292;BME280;36190;54.980;73.388;2023-06-26T08:35:50;99447.44;;;21.01;55.88
50292;BME280;36190;54.980;73.388;2023-06-26T08:38:17;99436.38;;;21.13;55.82
50292;BME280;36190;54.980;73.388;2023-06-26T08:40:47;99442.66;;;21.24;56.39
50292;BME280;36190;54.980;73.388;2023-06-26T08:43:15;99432.09;;;21.23;57.11
50292;BME280;36190;54.980;73.388;2023-06-26T08:45:42;99410.56;;;21.06;57.41
50292;BME280;36190;54.980;73.388;2023-06-26T08:48:10;99402.78;;;20.77;57.66
50292;BME280;36190;54.980;73.388;2023-06-26T08:50:39;99401.81;;;20.60;58.26
50292;BME280;36190;54.980;73.388;2023-06-26T08:53:18;99398.88;;;20.67;58.25
50292;BME280;36190;54.980;73.388;2023-06-26T08:55:49;99386.72;;;20.70;58.05
50292;BME280;36190;54.980;73.388;2023-06-26T08:58:19;99375.94;;;20.80;58.14
50292;BME280;36190;54.980;73.388;2023-06-26T09:00:47;99369.59;;;21.02;58.28
50292;BME280;36190;54.980;73.388;2023-06-26T09:03:15;99371.34;;;21.29;57.80
50292;BME280;36190;54.980;73.388;2023-06-26T09:05:43;99387.22;;;21.63;57.79
50292;BME280;36190;54.980;73.388;2023-06-26T09:08:12;99376.72;;;21.88;57.18
50292;BME280;36190;54.980;73.388;2023-06-26T09:10:40;99381.38;;;22.08;56.56
50292;BME280;36190;54.980;73.388;2023-06-26T09:13:08;99362.38;;;22.29;55.99
50292;BME280;36190;54.980;73.388;2023-06-26T09:15:39;99352.88;;;22.52;55.32
50292;BME280;36190;54.980;73.388;2023-06-26T09:18:09;99353.88;;;22.87;54.75
50292;BME280;36190;54.980;73.388;2023-06-26T09:20:36;99349.09;;;23.40;53.34
50292;BME280;36190;54.980;73.388;2023-06-26T09:23:04;99356.13;;;23.96;51.61
50292;BME280;36190;54.980;73.388;2023-06-26T09:25:33;99352.75;;;24.50;50.30
50292;BME280;36190;54.980;73.388;2023-06-26T09:28:01;99347.69;;;25.16;48.78
50292;BME280;36190;54.980;73.388;2023-06-26T09:30:28;99343.16;;;26.07;46.76
50292;BME280;36190;54.980;73.388;2023-06-26T09:33:13;99337.31;;;26.95;44.61
50292;BME280;36190;54.980;73.388;2023-06-26T09:35:41;99337.34;;;27.59;43.44
50292;BME280;36190;54.980;73.388;2023-06-26T09:38:09;99330.34;;;27.90;42.28
50292;BME280;36190;54.980;73.388;2023-06-26T09:40:37;99334.38;;;27.93;41.93
50292;BME280;36190;54.980;73.388;2023-06-26T09:43:05;99331.22;;;27.77;41.97
50292;BME280;36190;54.980;73.388;2023-06-26T09:45:33;99337.75;;;27.53;41.69
50292;BME280;36190;54.980;73.388;2023-06-26T09:48:02;99325.41;;;27.27;42.18
50292;BME280;36190;54.980;73.388;2023-06-26T09:50:30;99332.75;;;26.90;43.12
50292;BME280;36190;54.980;73.388;2023-06-26T09:53:07;99330.16;;;26.66;43.00
50292;BME280;36190;54.980;73.388;2023-06-26T09:55:36;99319.94;;;26.57;43.36
50292;BME280;36190;54.980;73.388;2023-06-26T09:58:04;99309.47;;;26.59;43.39
50292;BME280;36190;54.980;73.388;2023-06-26T10:00:33;99296.22;;;26.53;43.07
50292;BME280;36190;54.980;73.388;2023-06-26T10:03:00;99297.41;;;26.32;43.63
50292;BME280;36190;54.980;73.388;2023-06-26T10:05:28;99281.69;;;26.24;44.28
50292;BME280;36190;54.980;73.388;2023-06-26T10:07:55;99278.91;;;26.10;44.48
50292;BME280;36190;54.980;73.388;2023-06-26T10:10:23;99286.25;;;25.95;45.19
50292;BME280;36190;54.980;73.388;2023-06-26T10:12:59;99277.03;;;25.91;45.84
50292;BME280;36190;54.980;73.388;2023-06-26T10:15:29;99264.53;;;26.04;45.76
50292;BME280;36190;54.980;73.388;2023-06-26T10:17:57;99264.75;;;26.08;45.92
50292;BME280;36190;54.980;73.388;2023-06-26T10:20:25;99265.03;;;26.06;45.95
50292;BME280;36190;54.980;73.388;2023-06-26T10:22:55;99264.19;;;25.92;46.28
50292;BME280;36190;54.980;73.388;2023-06-26T10:25:25;99263.16;;;25.88;46.07
50292;BME280;36190;54.980;73.388;2023-06-26T10:27:57;99255.69;;;25.93;45.65
50292;BME280;36190;54.980;73.388;2023-06-26T10:30:28;99246.81;;;26.16;45.24
50292;BME280;36190;54.980;73.388;2023-06-26T10:32:57;99244.13;;;26.30;44.75
50292;BME280;36190;54.980;73.388;2023-06-26T10:35:24;99236.66;;;26.63;44.39
50292;BME280;36190;54.980;73.388;2023-06-26T10:38:00;99220.75;;;26.94;43.33
50292;BME280;36190;54.980;73.388;2023-06-26T10:40:40;99237.00;;;27.27;42.77
50292;BME280;36190;54.980;73.388;2023-06-26T10:43:10;99233.84;;;27.34;42.08
50292;BME280;36190;54.980;73.388;2023-06-26T10:45:43;99231.34;;;27.60;41.94
50292;BME280;36190;54.980;73.388;2023-06-26T10:48:13;99227.03;;;27.68;40.94
50292;BME280;36190;54.980;73.388;2023-06-26T10:50:41;99216.44;;;27.75;40.89
50292;BME280;36190;54.980;73.388;2023-06-26T10:53:10;99218.41;;;27.83;40.63
50292;BME280;36190;54.980;73.388;2023-06-26T10:55:43;99210.50;;;27.82;40.09
50292;BME280;36190;54.980;73.388;2023-06-26T10:58:31;99207.53;;;27.92;40.03
50292;BME280;36190;54.980;73.388;2023-06-26T11:01:19;99210.84;;;27.80;39.27
50292;BME280;36190;54.980;73.388;2023-06-26T11:03:48;99203.28;;;27.40;39.85
50292;BME280;36190;54.980;73.388;2023-06-26T11:06:18;99192.03;;;27.05;40.06
50292;BME280;36190;54.980;73.388;2023-06-26T11:08:46;99197.56;;;26.91;40.17
50292;BME280;36190;54.980;73.388;2023-06-26T11:11:14;99184.88;;;26.81;40.22
50292;BME280;36190;54.980;73.388;2023-06-26T11:13:45;99179.00;;;26.74;39.70
50292;BME280;36190;54.980;73.388;2023-06-26T11:16:13;99175.75;;;26.86;39.29
50292;BME280;36190;54.980;73.388;2023-06-26T11:18:41;99180.06;;;27.01;39.14
50292;BME280;36190;54.980;73.388;2023-06-26T11:21:09;99184.22;;;27.12;38.96
50292;BME280;36190;54.980;73.388;2023-06-26T11:23:40;99172.84;;;27.19;38.46
50292;BME280;36190;54.980;73.388;2023-06-26T11:26:15;99159.59;;;27.12;38.44
50292;BME280;36190;54.980;73.388;2023-06-26T11:28:51;99163.16;;;26.99;38.68
50292;BME280;36190;54.980;73.388;2023-06-26T11:31:24;99154.16;;;26.84;38.60
50292;BME280;36190;54.980;73.388;2023-06-26T11:33:52;99147.00;;;26.74;38.48
50292;BME280;36190;54.980;73.388;2023-06-26T11:36:23;99139.00;;;26.64;38.80
50292;BME280;36190;54.980;73.388;2023-06-26T11:38:53;99133.69;;;26.45;38.89
50292;BME280;36190;54.980;73.388;2023-06-26T11:41:21;99129.13;;;26.26;39.10
50292;BME280;36190;54.980;73.388;2023-06-26T11:43:51;99120.91;;;26.12;39.16
50292;BME280;36190;54.980;73.388;2023-06-26T11:46:19;99107.75;;;26.00;39.10
50292;BME280;36190;54.980;73.388;2023-06-26T11:48:47;99107.81;;;25.95;39.45
50292;BME280;36190;54.980;73.388;2023-06-26T11:51:15;99100.34;;;25.87;39.28
50292;BME280;36190;54.980;73.388;2023-06-26T11:53:44;99093.38;;;25.80;39.49
50292;BME280;36190;54.980;73.388;2023-06-26T11:56:13;99088.13;;;25.84;39.51
50292;BME280;36190;54.980;73.388;2023-06-26T11:58:58;99088.69;;;25.95;39.17
50292;BME280;36190;54.980;73.388;2023-06-26T12:01:27;99086.38;;;26.16;38.87
50292;BME280;36190;54.980;73.388;2023-06-26T12:03:58;99070.66;;;26.50;38.47
50292;BME280;36190;54.980;73.388;2023-06-26T12:06:27;99077.88;;;26.83;37.73
50292;BME280;36190;54.980;73.388;2023-06-26T12:08:55;99058.63;;;26.74;37.32
50292;BME280;36190;54.980;73.388;2023-06-26T12:11:23;99073.44;;;26.73;37.70
50292;BME280;36190;54.980;73.388;2023-06-26T12:13:52;99059.94;;;26.76;37.26
50292;BME280;36190;54.980;73.388;2023-06-26T12:16:21;99064.72;;;26.71;36.96
50292;BME280;36190;54.980;73.388;2023-06-26T12:18:48;99048.72;;;26.64;36.89
50292;BME280;36190;54.980;73.388;2023-06-26T12:21:33;99052.38;;;26.73;36.82
50292;BME280;36190;54.980;73.388;2023-06-26T12:24:01;99046.09;;;26.73;36.82
50292;BME280;36190;54.980;73.388;2023-06-26T12:26:28;99045.22;;;26.63;36.69
50292;BME280;36190;54.980;73.388;2023-06-26T12:29:02;99043.44;;;26.68;36.58
50292;BME280;36190;54.980;73.388;2023-06-26T12:31:31;99039.19;;;26.75;36.27
50292;BME280;36190;54.980;73.388;2023-06-26T12:33:59;99026.56;;;26.88;35.73
50292;BME280;36190;54.980;73.388;2023-06-26T12:36:27;99025.75;;;26.88;35.08
50292;BME280;36190;54.980;73.388;2023-06-26T12:38:54;99029.75;;;26.82;34.42
50292;BME280;36190;54.980;73.388;2023-06-26T12:41:24;99037.19;;;26.67;34.40
50292;BME280;36190;54.980;73.388;2023-06-26T12:43:56;99028.66;;;26.69;33.80
50292;BME280;36190;54.980;73.388;2023-06-26T12:46:34;99029.59;;;26.87;33.85
50292;BME280;36190;54.980;73.388;2023-06-26T12:49:02;99023.34;;;27.09;33.30
50292;BME280;36190;54.980;73.388;2023-06-26T12:51:29;99025.06;;;27.28;32.99
50292;BME280;36190;54.980;73.388;2023-06-26T12:53:56;99011.38;;;27.28;32.90
50292;BME280;36190;54.980;73.388;2023-06-26T12:56:24;99011.41;;;27.05;33.42
50292;BME280;36190;54.980;73.388;2023-06-26T12:58:51;99014.22;;;26.77;33.98
50292;BME280;36190;54.980;73.388;2023-06-26T13:01:18;99014.09;;;26.59;33.96